sensor_id;sensor_type;location;lat;lon;timestamp;pressure;altitude;pressure_sealevel;temperature;humidity
21730;BME280;11027;51.030;13.812;2023-08-21T00:01:55;100739.13;;;26.27;71.53
21730;BME280;11027;51.030;13.812;2023-08-21T00:04:20;100735.78;;;26.25;71.95
21730;BME280;11027;51.030;13.812;2023-08-21T00:06:46;100731.03;;;26.25;71.60
21730;BME280;11027;51.030;13.812;2023-08-21T00:09:11;100737.47;;;26.26;71.66
21730;BME280;11027;51.030;13.812;2023-08-21T00:11:36;100740.53;;;26.24;71.80
21730;BME280;11027;51.030;13.812;2023-08-21T00:14:02;100735.47;;;26.21;71.91
21730;BME280;11027;51.030;13.812;2023-08-21T00:16:27;100737.38;;;26.15;71.88
21730;BME280;11027;51.030;13.812;2023-08-21T00:18:53;100727.03;;;26.11;71.63
21730;BME280;11027;51.030;13.812;2023-08-21T00:21:19;100727.31;;;26.09;71.61
21730;BME280;11027;51.030;13.812;2023-08-21T00:23:45;100739.88;;;26.07;71.65
21730;BME280;11027;51.030;13.812;2023-08-21T00:26:10;100732.88;;;26.04;71.72
21730;BME280;11027;51.030;13.812;2023-08-21T00:28:35;100737.88;;;26.02;72.58
21730;BME280;11027;51.030;13.812;2023-08-21T00:31:05;100732.31;;;26.02;72.70
21730;BME280;11027;51.030;13.812;2023-08-21T00:33:33;100731.75;;;26.00;72.91
21730;BME280;11027;51.030;13.812;2023-08-21T00:35:59;100721.66;;;25.99;72.73
21730;BME280;11027;51.030;13.812;2023-08-21T00:38:24;100720.81;;;25.93;72.81
21730;BME280;11027;51.030;13.812;2023-08-21T00:40:50;100719.91;;;25.88;72.83
21730;BME280;11027;51.030;13.812;2023-08-21T00:43:16;100724.34;;;25.84;72.36
21730;BME280;11027;51.030;13.812;2023-08-21T00:45:43;100726.25;;;25.78;72.60
21730;BME280;11027;51.030;13.812;2023-08-21T00:48:09;100715.56;;;25.65;72.32
21730;BME280;11027;51.030;13.812;2023-08-21T00:50:35;100721.38;;;25.58;72.87
21730;BME280;11027;51.030;13.812;2023-08-21T00:53:01;100713.25;;;25.57;72.75
21730;BME280;11027;51.030;13.812;2023-08-21T00:55:27;100717.19;;;25.55;73.08
21730;BME280;11027;51.030;13.812;2023-08-21T00:57:53;100723.03;;;25.59;73.23
21730;BME280;11027;51.030;13.812;2023-08-21T01:00:18;100719.16;;;25.60;73.01
21730;BME280;11027;51.030;13.812;2023-08-21T01:02:44;100712.44;;;25.56;72.78
21730;BME280;11027;51.030;13.812;2023-08-21T01:05:09;100712.94;;;25.53;73.02
21730;BME280;11027;51.030;13.812;2023-08-21T01:07:41;100709.59;;;25.51;73.24
21730;BME280;11027;51.030;13.812;2023-08-21T01:10:16;100722.44;;;25.52;73.05
21730;BME280;11027;51.030;13.812;2023-08-21T01:12:57;100712.38;;;25.51;73.14
21730;BME280;11027;51.030;13.812;2023-08-21T01:15:24;100716.56;;;25.48;73.34
21730;BME280;11027;51.030;13.812;2023-08-21T01:17:50;100714.88;;;25.47;73.36
21730;BME280;11027;51.030;13.812;2023-08-21T01:20:17;100718.75;;;25.46;73.29
21730;BME280;11027;51.030;13.812;2023-08-21T01:22:43;100716.22;;;25.45;73.72
21730;BME280;11027;51.030;13.812;2023-08-21T01:25:11;100718.44;;;25.43;73.49
21730;BME280;11027;51.030;13.812;2023-08-21T01:27:40;100722.38;;;25.42;73.60
21730;BME280;11027;51.030;13.812;2023-08-21T01:30:07;100717.31;;;25.39;73.77
21730;BME280;11027;51.030;13.812;2023-08-21T01:35:20;100714.50;;;25.33;74.17
21730;BME280;11027;51.030;13.812;2023-08-21T01:37:46;100725.66;;;25.33;73.89
21730;BME280;11027;51.030;13.812;2023-08-21T01:40:12;100733.44;;;25.31;74.02
21730;BME280;11027;51.030;13.812;2023-08-21T01:42:37;100728.69;;;25.32;74.18
21730;BME280;11027;51.030;13.812;2023-08-21T01:45:03;100736.78;;;25.33;73.92
21730;BME280;11027;51.030;13.812;2023-08-21T01:47:28;100730.97;;;25.35;73.73
21730;BME280;11027;51.030;13.812;2023-08-21T01:49:53;100717.84;;;25.35;73.45
21730;BME280;11027;51.030;13.812;2023-08-21T01:52:19;100715.91;;;25.36;73.65
21730;BME280;11027;51.030;13.812;2023-08-21T01:54:44;100718.44;;;25.38;73.64
21730;BME280;11027;51.030;13.812;2023-08-21T01:57:10;100722.03;;;25.38;73.65
21730;BME280;11027;51.030;13.812;2023-08-21T01:59:35;100713.09;;;25.36;73.67
21730;BME280;11027;51.030;13.812;2023-08-21T02:02:00;100716.69;;;25.31;73.97
21730;BME280;11027;51.030;13.812;2023-08-21T02:04:26;100715.00;;;25.30;74.16
21730;BME280;11027;51.030;13.812;2023-08-21T02:06:51;100715.00;;;25.30;74.36
21730;BME280;11027;51.030;13.812;2023-08-21T02:09:16;100698.81;;;25.27;74.62
21730;BME280;11027;51.030;13.812;2023-08-21T02:11:41;100701.56;;;25.22;75.04
21730;BME280;11027;51.030;13.812;2023-08-21T02:14:07;100710.38;;;25.14;75.17
21730;BME280;11027;51.030;13.812;2023-08-21T02:16:32;100717.00;;;25.08;75.72
21730;BME280;11027;51.030;13.812;2023-08-21T02:18:57;100713.63;;;25.06;75.71
21730;BME280;11027;51.030;13.812;2023-08-21T02:21:23;100713.06;;;25.04;75.85
21730;BME280;11027;51.030;13.812;2023-08-21T02:23:48;100717.56;;;25.05;75.80
21730;BME280;11027;51.030;13.812;2023-08-21T02:26:13;100720.59;;;25.03;75.89
21730;BME280;11027;51.030;13.812;2023-08-21T02:28:39;100727.53;;;25.01;75.95
21730;BME280;11027;51.030;13.812;2023-08-21T02:31:04;100722.47;;;24.98;76.40
21730;BME280;11027;51.030;13.812;2023-08-21T02:33:30;100726.38;;;24.97;76.23
21730;BME280;11027;51.030;13.812;2023-08-21T02:35:56;100722.41;;;24.92;76.68
21730;BME280;11027;51.030;13.812;2023-08-21T02:38:21;100717.63;;;24.88;77.01
21730;BME280;11027;51.030;13.812;2023-08-21T02:40:46;100726.25;;;24.86;77.10
21730;BME280;11027;51.030;13.812;2023-08-21T02:43:12;100718.75;;;24.87;77.06
21730;BME280;11027;51.030;13.812;2023-08-21T02:45:38;100719.25;;;24.84;77.41
21730;BME280;11027;51.030;13.812;2023-08-21T02:48:03;100726.16;;;24.76;77.91
21730;BME280;11027;51.030;13.812;2023-08-21T02:50:29;100726.09;;;24.71;78.35
21730;BME280;11027;51.030;13.812;2023-08-21T02:52:54;100719.94;;;24.69;78.59
21730;BME280;11027;51.030;13.812;2023-08-21T02:55:19;100722.16;;;24.67;78.83
21730;BME280;11027;51.030;13.812;2023-08-21T02:57:46;100709.84;;;24.63;79.18
21730;BME280;11027;51.030;13.812;2023-08-21T03:00:11;100710.69;;;24.63;78.79
21730;BME280;11027;51.030;13.812;2023-08-21T03:02:37;100709.31;;;24.66;78.76
21730;BME280;11027;51.030;13.812;2023-08-21T03:05:03;100705.44;;;24.67;79.01
21730;BME280;11027;51.030;13.812;2023-08-21T03:07:29;100719.03;;;24.63;78.97
21730;BME280;11027;51.030;13.812;2023-08-21T03:09:54;100714.59;;;24.62;79.19
21730;BME280;11027;51.030;13.812;2023-08-21T03:12:19;100715.09;;;24.59;79.15
21730;BME280;11027;51.030;13.812;2023-08-21T03:14:46;100717.31;;;24.57;79.07
21730;BME280;11027;51.030;13.812;2023-08-21T03:17:11;100711.72;;;24.57;79.26
21730;BME280;11027;51.030;13.812;2023-08-21T03:19:36;100713.09;;;24.54;79.16
21730;BME280;11027;51.030;13.812;2023-08-21T03:22:02;100717.50;;;24.50;79.33
21730;BME280;11027;51.030;13.812;2023-08-21T03:24:27;100724.75;;;24.51;79.31
21730;BME280;11027;51.030;13.812;2023-08-21T03:26:52;100721.34;;;24.49;79.65
21730;BME280;11027;51.030;13.812;2023-08-21T03:29:18;100717.50;;;24.50;79.73
21730;BME280;11027;51.030;13.812;2023-08-21T03:31:43;100713.34;;;24.53;79.81
21730;BME280;11027;51.030;13.812;2023-08-21T03:34:11;100719.75;;;24.53;79.78
21730;BME280;11027;51.030;13.812;2023-08-21T03:36:36;100717.50;;;24.50;79.79
21730;BME280;11027;51.030;13.812;2023-08-21T03:39:03;100721.88;;;24.46;80.08
21730;BME280;11027;51.030;13.812;2023-08-21T03:41:31;100723.56;;;24.47;80.24
21730;BME280;11027;51.030;13.812;2023-08-21T03:43:57;100730.81;;;24.48;80.22
21730;BME280;11027;51.030;13.812;2023-08-21T03:46:22;100729.13;;;24.47;80.25
21730;BME280;11027;51.030;13.812;2023-08-21T03:48:47;100732.50;;;24.49;80.20
21730;BME280;11027;51.030;13.812;2023-08-21T03:51:12;100730.81;;;24.48;80.06
21730;BME280;11027;51.030;13.812;2023-08-21T03:53:38;100729.13;;;24.47;79.48
21730;BME280;11027;51.030;13.812;2023-08-21T03:56:03;100733.03;;;24.46;78.97
21730;BME280;11027;51.030;13.812;2023-08-21T03:58:29;100736.06;;;24.45;78.67
21730;BME280;11027;51.030;13.812;2023-08-21T04:00:54;100740.25;;;24.47;78.40
21730;BME280;11027;51.030;13.812;2023-08-21T04:03:20;100738.06;;;24.49;78.43
21730;BME280;11027;51.030;13.812;2023-08-21T04:05:46;100730.81;;;24.48;78.29
21730;BME280;11027;51.030;13.812;2023-08-21T04:08:11;100740.84;;;24.49;78.14
21730;BME280;11027;51.030;13.812;2023-08-21T04:10:36;100740.63;;;24.51;77.70
21730;BME280;11027;51.030;13.812;2023-08-21T04:13:04;100740.63;;;24.51;77.73
21730;BME280;11027;51.030;13.812;2023-08-21T04:15:29;100741.47;;;24.51;77.46
21730;BME280;11027;51.030;13.812;2023-08-21T04:17:54;100734.22;;;24.50;77.31
21730;BME280;11027;51.030;13.812;2023-08-21T04:20:20;100732.03;;;24.52;77.02
21730;BME280;11027;51.030;13.812;2023-08-21T04:22:47;100726.44;;;24.52;76.92
21730;BME280;11027;51.030;13.812;2023-08-21T04:25:12;100738.69;;;24.51;76.94
21730;BME280;11027;51.030;13.812;2023-08-21T04:27:37;100745.84;;;24.47;77.02
21730;BME280;11027;51.030;13.812;2023-08-21T04:30:03;100746.88;;;24.41;77.45
21730;BME280;11027;51.030;13.812;2023-08-21T04:32:30;100743.16;;;24.35;77.55
21730;BME280;11027;51.030;13.812;2023-08-21T04:34:55;100737.81;;;24.29;78.02
21730;BME280;11027;51.030;13.812;2023-08-21T04:37:20;100740.50;;;24.24;78.20
21730;BME280;11027;51.030;13.812;2023-08-21T04:39:46;100739.34;;;24.20;78.67
21730;BME280;11027;51.030;13.812;2023-08-21T04:42:11;100739.94;;;24.22;78.86
21730;BME280;11027;51.030;13.812;2023-08-21T04:44:36;100746.06;;;24.24;78.95
21730;BME280;11027;51.030;13.812;2023-08-21T04:47:19;100747.78;;;24.25;78.91
21730;BME280;11027;51.030;13.812;2023-08-21T04:49:45;100744.75;;;24.26;78.97
21730;BME280;11027;51.030;13.812;2023-08-21T04:52:10;100747.25;;;24.28;79.21
21730;BME280;11027;51.030;13.812;2023-08-21T04:54:36;100740.59;;;24.29;79.33
21730;BME280;11027;51.030;13.812;2023-08-21T04:57:01;100738.31;;;24.26;79.63
21730;BME280;11027;51.030;13.812;2023-08-21T04:59:27;100742.72;;;24.22;79.85
21730;BME280;11027;51.030;13.812;2023-08-21T05:01:52;100741.03;;;24.21;80.07
21730;BME280;11027;51.030;13.812;2023-08-21T05:04:17;100733.78;;;24.20;80.38
21730;BME280;11027;51.030;13.812;2023-08-21T05:06:42;100744.06;;;24.19;80.58
21730;BME280;11027;51.030;13.812;2023-08-21T05:09:08;100751.00;;;24.16;80.50
21730;BME280;11027;51.030;13.812;2023-08-21T05:11:33;100754.88;;;24.15;80.90
21730;BME280;11027;51.030;13.812;2023-08-21T05:13:58;100750.66;;;24.13;81.15
21730;BME280;11027;51.030;13.812;2023-08-21T05:16:23;100755.41;;;24.12;81.16
21730;BME280;11027;51.030;13.812;2023-08-21T05:18:49;100758.44;;;24.11;81.39
21730;BME280;11027;51.030;13.812;2023-08-21T05:21:14;100760.63;;;24.09;81.57
21730;BME280;11027;51.030;13.812;2023-08-21T05:23:39;100763.16;;;24.10;81.57
21730;BME280;11027;51.030;13.812;2023-08-21T05:26:04;100763.16;;;24.10;81.47
21730;BME280;11027;51.030;13.812;2023-08-21T05:28:29;100766.53;;;24.12;81.88
21730;BME280;11027;51.030;13.812;2023-08-21T05:30:56;100761.31;;;24.16;81.94
21730;BME280;11027;51.030;13.812;2023-08-21T05:33:22;100764.69;;;24.18;81.96
21730;BME280;11027;51.030;13.812;2023-08-21T05:35:47;100761.59;;;24.20;81.79
21730;BME280;11027;51.030;13.812;2023-08-21T05:38:12;100767.75;;;24.22;81.64
21730;BME280;11027;51.030;13.812;2023-08-21T05:40:37;100766.69;;;24.23;81.74
21730;BME280;11027;51.030;13.812;2023-08-21T05:43:05;100771.13;;;24.24;81.63
21730;BME280;11027;51.030;13.812;2023-08-21T05:45:30;100761.16;;;24.28;81.71
21730;BME280;11027;51.030;13.812;2023-08-21T05:47:55;100773.16;;;24.28;81.83
21730;BME280;11027;51.030;13.812;2023-08-21T05:50:20;100768.44;;;24.29;81.92
21730;BME280;11027;51.030;13.812;2023-08-21T05:52:45;100767.84;;;24.27;81.99
21730;BME280;11027;51.030;13.812;2023-08-21T05:55:11;100765.41;;;24.30;81.92
21730;BME280;11027;51.030;13.812;2023-08-21T05:57:36;100769.50;;;24.28;81.80
21730;BME280;11027;51.030;13.812;2023-08-21T06:00:02;100771.72;;;24.26;82.00
21730;BME280;11027;51.030;13.812;2023-08-21T06:02:28;100768.09;;;24.25;81.98
21730;BME280;11027;51.030;13.812;2023-08-21T06:04:53;100763.94;;;24.28;81.97
21730;BME280;11027;51.030;13.812;2023-08-21T06:07:18;100763.44;;;24.31;82.06
21730;BME280;11027;51.030;13.812;2023-08-21T06:09:44;100763.78;;;24.34;81.87
21730;BME280;11027;51.030;13.812;2023-08-21T06:12:09;100759.38;;;24.39;81.83
21730;BME280;11027;51.030;13.812;2023-08-21T06:14:34;100765.78;;;24.39;81.93
21730;BME280;11027;51.030;13.812;2023-08-21T06:17:02;100757.44;;;24.39;81.89
21730;BME280;11027;51.030;13.812;2023-08-21T06:19:28;100760.22;;;24.39;81.99
21730;BME280;11027;51.030;13.812;2023-08-21T06:21:56;100758.25;;;24.40;81.33
21730;BME280;11027;51.030;13.812;2023-08-21T06:24:22;100753.22;;;24.36;81.86
21730;BME280;11027;51.030;13.812;2023-08-21T06:26:48;100759.63;;;24.37;81.62
21730;BME280;11027;51.030;13.812;2023-08-21T06:29:13;100759.31;;;24.33;81.85
21730;BME280;11027;51.030;13.812;2023-08-21T06:31:38;100768.81;;;24.38;81.48
21730;BME280;11027;51.030;13.812;2023-08-21T06:34:04;100768.94;;;24.48;81.17
21730;BME280;11027;51.030;13.812;2023-08-21T06:36:29;100763.53;;;24.58;81.18
21730;BME280;11027;51.030;13.812;2023-08-21T06:38:55;100767.56;;;24.67;80.84
21730;BME280;11027;51.030;13.812;2023-08-21T06:41:21;100769.50;;;24.67;80.57
21730;BME280;11027;51.030;13.812;2023-08-21T06:43:46;100771.47;;;24.66;80.34
21730;BME280;11027;51.030;13.812;2023-08-21T06:46:12;100770.59;;;24.66;80.17
21730;BME280;11027;51.030;13.812;2023-08-21T06:48:39;100770.09;;;24.69;80.53
21730;BME280;11027;51.030;13.812;2023-08-21T06:51:06;100768.47;;;24.73;79.98
21730;BME280;11027;51.030;13.812;2023-08-21T06:53:31;100768.50;;;24.78;79.69
21730;BME280;11027;51.030;13.812;2023-08-21T06:55:56;100773.63;;;24.86;79.32
21730;BME280;11027;51.030;13.812;2023-08-21T06:58:21;100770.97;;;24.97;78.63
21730;BME280;11027;51.030;13.812;2023-08-21T07:00:47;100766.56;;;25.01;77.97
21730;BME280;11027;51.030;13.812;2023-08-21T07:03:12;100776.84;;;25.00;77.72
21730;BME280;11027;51.030;13.812;2023-08-21T07:05:37;100777.72;;;25.01;77.72
21730;BME280;11027;51.030;13.812;2023-08-21T07:08:03;100779.38;;;25.02;77.74
21730;BME280;11027;51.030;13.812;2023-08-21T07:10:28;100778.88;;;25.05;77.17
21730;BME280;11027;51.030;13.812;2023-08-21T07:12:54;100779.16;;;25.08;77.07
21730;BME280;11027;51.030;13.812;2023-08-21T07:15:20;100775.06;;;25.16;77.16
21730;BME280;11027;51.030;13.812;2023-08-21T07:17:45;100779.09;;;25.25;76.68
21730;BME280;11027;51.030;13.812;2023-08-21T07:20:10;100781.94;;;25.30;76.41
21730;BME280;11027;51.030;13.812;2023-08-21T07:22:36;100777.50;;;25.34;75.86
21730;BME280;11027;51.030;13.812;2023-08-21T07:25:01;100788.66;;;25.34;75.83
21730;BME280;11027;51.030;13.812;2023-08-21T07:27:29;100790.88;;;25.32;75.26
21730;BME280;11027;51.030;13.812;2023-08-21T07:29:55;100790.88;;;25.32;75.09
21730;BME280;11027;51.030;13.812;2023-08-21T07:32:20;100792.34;;;25.40;75.25
21730;BME280;11027;51.030;13.812;2023-08-21T07:34:45;100798.56;;;25.47;75.10
21730;BME280;11027;51.030;13.812;2023-08-21T07:37:10;100785.44;;;25.48;75.21
21730;BME280;11027;51.030;13.812;2023-08-21T07:39:36;100795.47;;;25.49;75.52
21730;BME280;11027;51.030;13.812;2023-08-21T07:42:01;100788.81;;;25.50;75.46
21730;BME280;11027;51.030;13.812;2023-08-21T07:44:26;100790.44;;;25.46;75.08
21730;BME280;11027;51.030;13.812;2023-08-21T07:46:52;100796.53;;;25.43;75.38
21730;BME280;11027;51.030;13.812;2023-08-21T07:49:17;100803.19;;;25.37;75.07
21730;BME280;11027;51.030;13.812;2023-08-21T07:51:42;100798.97;;;25.34;75.56
21730;BME280;11027;51.030;13.812;2023-08-21T07:54:08;100798.16;;;25.33;75.16
21730;BME280;11027;51.030;13.812;2023-08-21T07:56:33;100797.00;;;25.29;75.35
21730;BME280;11027;51.030;13.812;2023-08-21T07:59:00;100795.84;;;25.25;75.60
21730;BME280;11027;51.030;13.812;2023-08-21T08:01:26;100790.78;;;25.22;75.39
21730;BME280;11027;51.030;13.812;2023-08-21T08:03:51;100782.16;;;25.24;75.57
21730;BME280;11027;51.030;13.812;2023-08-21T08:06:17;100797.50;;;25.26;75.57
21730;BME280;11027;51.030;13.812;2023-08-21T08:08:43;100795.28;;;25.28;75.91
21730;BME280;11027;51.030;13.812;2023-08-21T08:11:08;100795.28;;;25.28;76.07
21730;BME280;11027;51.030;13.812;2023-08-21T08:13:34;100788.63;;;25.29;76.29
21730;BME280;11027;51.030;13.812;2023-08-21T08:15:59;100786.41;;;25.31;76.48
21730;BME280;11027;51.030;13.812;2023-08-21T08:18:24;100797.31;;;25.33;76.44
21730;BME280;11027;51.030;13.812;2023-08-21T08:20:49;100788.66;;;25.34;76.29
21730;BME280;11027;51.030;13.812;2023-08-21T08:23:15;100793.72;;;25.38;76.38
21730;BME280;11027;51.030;13.812;2023-08-21T08:25:40;100798.75;;;25.41;76.30
21730;BME280;11027;51.030;13.812;2023-08-21T08:28:05;100794.03;;;25.41;75.62
21730;BME280;11027;51.030;13.812;2023-08-21T08:30:31;100799.88;;;25.40;75.61
21730;BME280;11027;51.030;13.812;2023-08-21T08:32:56;100799.88;;;25.40;75.69
21730;BME280;11027;51.030;13.812;2023-08-21T08:35:21;100803.00;;;25.43;75.50
21730;BME280;11027;51.030;13.812;2023-08-21T08:37:47;100801.38;;;25.52;75.38
21730;BME280;11027;51.030;13.812;2023-08-21T08:40:12;100798.97;;;25.61;74.86
21730;BME280;11027;51.030;13.812;2023-08-21T08:42:38;100797.34;;;25.70;74.85
21730;BME280;11027;51.030;13.812;2023-08-21T08:45:03;100793.56;;;25.82;74.81
21730;BME280;11027;51.030;13.812;2023-08-21T08:47:31;100796.91;;;25.84;74.49
21730;BME280;11027;51.030;13.812;2023-08-21T08:49:57;100795.78;;;25.85;74.76
21730;BME280;11027;51.030;13.812;2023-08-21T08:52:26;100799.25;;;25.92;74.53
21730;BME280;11027;51.030;13.812;2023-08-21T08:54:52;100798.16;;;25.98;74.72
21730;BME280;11027;51.030;13.812;2023-08-21T08:57:18;100799.56;;;26.01;74.84
21730;BME280;11027;51.030;13.812;2023-08-21T08:59:44;100794.25;;;25.99;75.00
21730;BME280;11027;51.030;13.812;2023-08-21T09:02:09;100785.59;;;25.96;74.84
21730;BME280;11027;51.030;13.812;2023-08-21T09:04:34;100793.09;;;25.95;75.21
21730;BME280;11027;51.030;13.812;2023-08-21T09:07:07;100789.78;;;25.98;75.37
21730;BME280;11027;51.030;13.812;2023-08-21T09:09:45;100799.00;;;25.99;75.40
21730;BME280;11027;51.030;13.812;2023-08-21T09:12:12;100788.66;;;25.99;75.19
21730;BME280;11027;51.030;13.812;2023-08-21T09:14:39;100795.19;;;26.10;75.51
21730;BME280;11027;51.030;13.812;2023-08-21T09:17:04;100799.44;;;26.23;75.41
21730;BME280;11027;51.030;13.812;2023-08-21T09:19:30;100793.97;;;26.43;74.81
21730;BME280;11027;51.030;13.812;2023-08-21T09:21:55;100785.69;;;26.64;74.50
21730;BME280;11027;51.030;13.812;2023-08-21T09:24:20;100785.19;;;26.82;73.79
21730;BME280;11027;51.030;13.812;2023-08-21T09:26:46;100795.91;;;27.01;73.33
21730;BME280;11027;51.030;13.812;2023-08-21T09:29:12;100789.78;;;27.19;72.67
21730;BME280;11027;51.030;13.812;2023-08-21T09:31:37;100784.25;;;27.29;71.20
21730;BME280;11027;51.030;13.812;2023-08-21T09:34:04;100788.44;;;27.42;71.01
21730;BME280;11027;51.030;13.812;2023-08-21T09:36:33;100798.25;;;27.55;70.31
21730;BME280;11027;51.030;13.812;2023-08-21T09:38:59;100785.66;;;27.68;68.93
21730;BME280;11027;51.030;13.812;2023-08-21T09:41:25;100788.75;;;27.66;68.06
21730;BME280;11027;51.030;13.812;2023-08-21T09:43:51;100786.22;;;27.65;67.36
21730;BME280;11027;51.030;13.812;2023-08-21T09:46:17;100782.03;;;27.62;67.39
21730;BME280;11027;51.030;13.812;2023-08-21T09:48:48;100794.34;;;27.56;66.74
21730;BME280;11027;51.030;13.812;2023-08-21T09:51:14;100787.63;;;27.52;67.14
21730;BME280;11027;51.030;13.812;2023-08-21T09:53:40;100782.59;;;27.44;66.53
21730;BME280;11027;51.030;13.812;2023-08-21T09:56:06;100784.81;;;27.37;66.89
21730;BME280;11027;51.030;13.812;2023-08-21T09:58:32;100780.88;;;27.27;67.06
21730;BME280;11027;51.030;13.812;2023-08-21T10:00:58;100780.28;;;27.20;66.46
21730;BME280;11027;51.030;13.812;2023-08-21T10:03:25;100768.53;;;27.13;66.84
21730;BME280;11027;51.030;13.812;2023-08-21T10:05:50;100778.59;;;27.09;66.38
21730;BME280;11027;51.030;13.812;2023-08-21T10:08:21;100771.88;;;27.05;66.20
21730;BME280;11027;51.030;13.812;2023-08-21T10:10:48;100762.91;;;27.03;66.38
21730;BME280;11027;51.030;13.812;2023-08-21T10:13:14;100777.72;;;27.08;66.09
21730;BME280;11027;51.030;13.812;2023-08-21T10:15:39;100768.78;;;27.17;65.59
21730;BME280;11027;51.030;13.812;2023-08-21T10:18:21;100773.06;;;27.29;64.26
21730;BME280;11027;51.030;13.812;2023-08-21T10:20:49;100767.75;;;27.43;63.44
21730;BME280;11027;51.030;13.812;2023-08-21T10:23:30;100773.06;;;27.60;63.07
21730;BME280;11027;51.030;13.812;2023-08-21T10:26:00;100765.81;;;27.69;61.30
21730;BME280;11027;51.030;13.812;2023-08-21T10:28:48;100766.34;;;27.77;59.46
21730;BME280;11027;51.030;13.812;2023-08-21T10:31:32;100762.16;;;27.95;59.86
21730;BME280;11027;51.030;13.812;2023-08-21T10:33:59;100760.72;;;28.07;58.99
21730;BME280;11027;51.030;13.812;2023-08-21T10:39:26;100762.94;;;28.21;57.56
21730;BME280;11027;51.030;13.812;2023-08-21T10:42:10;100755.09;;;28.23;57.81
21730;BME280;11027;51.030;13.812;2023-08-21T10:47:23;100755.09;;;28.28;57.35
21730;BME280;11027;51.030;13.812;2023-08-21T10:49:53;100747.78;;;28.27;56.90
21730;BME280;11027;51.030;13.812;2023-08-21T10:52:23;100747.25;;;28.25;57.15
21730;BME280;11027;51.030;13.812;2023-08-21T10:54:51;100752.28;;;28.23;56.64
21730;BME280;11027;51.030;13.812;2023-08-21T10:57:17;100745.56;;;28.19;57.46
21730;BME280;11027;51.030;13.812;2023-08-21T11:00:12;100745.31;;;28.15;57.02
21730;BME280;11027;51.030;13.812;2023-08-21T11:02:39;100745.03;;;28.11;57.10
21730;BME280;11027;51.030;13.812;2023-08-21T11:05:05;100753.44;;;28.06;56.75
21730;BME280;11027;51.030;13.812;2023-08-21T11:07:39;100750.09;;;28.04;56.61
21730;BME280;11027;51.030;13.812;2023-08-21T11:10:10;100747.28;;;27.99;56.97
21730;BME280;11027;51.030;13.812;2023-08-21T11:12:36;100753.47;;;27.96;56.15
21730;BME280;11027;51.030;13.812;2023-08-21T11:15:03;100748.44;;;27.93;56.75
21730;BME280;11027;51.030;13.812;2023-08-21T11:17:28;100740.03;;;27.93;57.15
21730;BME280;11027;51.030;13.812;2023-08-21T11:19:53;100742.00;;;27.98;56.57
21730;BME280;11027;51.030;13.812;2023-08-21T11:22:18;100741.69;;;27.99;57.05
21730;BME280;11027;51.030;13.812;2023-08-21T11:24:48;100745.34;;;28.00;56.78
21730;BME280;11027;51.030;13.812;2023-08-21T11:27:15;100738.34;;;27.97;56.26
21730;BME280;11027;51.030;13.812;2023-08-21T11:29:48;100738.94;;;27.94;55.62
21730;BME280;11027;51.030;13.812;2023-08-21T11:32:16;100743.69;;;27.93;55.91
21730;BME280;11027;51.030;13.812;2023-08-21T11:34:47;100740.03;;;27.98;56.12
21730;BME280;11027;51.030;13.812;2023-08-21T11:37:12;100733.00;;;28.11;56.60
21730;BME280;11027;51.030;13.812;2023-08-21T11:39:48;100722.03;;;28.25;56.34
21730;BME280;11027;51.030;13.812;2023-08-21T11:42:14;100727.88;;;28.39;55.86
21730;BME280;11027;51.030;13.812;2023-08-21T11:44:46;100720.81;;;28.51;54.68
21730;BME280;11027;51.030;13.812;2023-08-21T11:47:11;100723.00;;;28.65;54.43
21730;BME280;11027;51.030;13.812;2023-08-21T11:49:39;100723.56;;;28.67;53.96
21730;BME280;11027;51.030;13.812;2023-08-21T11:52:07;100731.97;;;28.62;53.90
21730;BME280;11027;51.030;13.812;2023-08-21T11:54:36;100731.75;;;28.53;53.42
21730;BME280;11027;51.030;13.812;2023-08-21T11:57:11;100722.53;;;28.42;53.78
21730;BME280;11027;51.030;13.812;2023-08-21T11:59:37;100726.72;;;28.40;53.89
21730;BME280;11027;51.030;13.812;2023-08-21T12:02:10;100727.59;;;28.40;53.89
21730;BME280;11027;51.030;13.812;2023-08-21T12:04:35;100724.75;;;28.50;54.07
21730;BME280;11027;51.030;13.812;2023-08-21T12:07:01;100727.47;;;28.66;54.06
21730;BME280;11027;51.030;13.812;2023-08-21T12:09:26;100717.28;;;28.80;53.65
21730;BME280;11027;51.030;13.812;2023-08-21T12:11:52;100719.19;;;28.95;53.70
21730;BME280;11027;51.030;13.812;2023-08-21T12:14:17;100719.38;;;29.09;54.33
21730;BME280;11027;51.030;13.812;2023-08-21T12:16:43;100718.16;;;29.25;53.71
21730;BME280;11027;51.030;13.812;2023-08-21T12:19:08;100709.59;;;29.41;53.17
21730;BME280;11027;51.030;13.812;2023-08-21T12:21:35;100717.06;;;29.56;52.71
21730;BME280;11027;51.030;13.812;2023-08-21T12:24:04;100722.81;;;29.69;51.89
21730;BME280;11027;51.030;13.812;2023-08-21T12:26:29;100718.41;;;29.63;51.94
21730;BME280;11027;51.030;13.812;2023-08-21T12:28:54;100714.53;;;29.54;52.22
21730;BME280;11027;51.030;13.812;2023-08-21T12:31:20;100716.44;;;29.59;52.58
21730;BME280;11027;51.030;13.812;2023-08-21T12:33:45;100722.25;;;29.73;51.76
21730;BME280;11027;51.030;13.812;2023-08-21T12:36:10;100713.69;;;29.88;50.82
21730;BME280;11027;51.030;13.812;2023-08-21T12:38:36;100718.56;;;30.01;50.33
21730;BME280;11027;51.030;13.812;2023-08-21T12:41:02;100715.97;;;30.10;49.30
21730;BME280;11027;51.030;13.812;2023-08-21T12:43:27;100717.88;;;30.15;48.95
21730;BME280;11027;51.030;13.812;2023-08-21T12:45:53;100710.47;;;30.24;48.65